Edwardsburg, MI (49112)

12:01 AM EDT on July 26, 2016 (GMT -0400)
Juno Lake | | Change Station

Elev 800 ft 41.80 °N, 85.98 °W | Updated 9 days ago

Clear
Clear
65 °F
Feels Like 65 °F
N
2
Wind Variable Wind from North
Gusts mph

Today
High -- | Low -- °F
--% Chance of Precip.
Yesterday
High -- | Low -- °F
Precip. -- in
Pressure 30.02 in
Visibility 10.0 miles
Clouds Clear
Dew Point 62 °F
Humidity 88%
Rainfall in
Snow Depth Not available.
6:32 AM 9:08 PM
Waning Gibbous, 59% visible
METAR KSBN 260354Z 25003KT 10SM CLR 20/18 A3004 RMK AO2 SLP165 T02000178
Pressure 30.02 in
Visibility 10.0 miles
Clouds Clear
Dew Point 62 °F
Humidity 88%
Rainfall in
Snow Depth Not available.
6:32 AM 9:08 PM
Waning Gibbous, 59% visible
METAR KSBN 260354Z 25003KT 10SM CLR 20/18 A3004 RMK AO2 SLP165 T02000178
Record highs are possible for parts of the Northeast Monday and Tuesday, as parts of the central U.S. take a little breather from the worst of summer's dog day heat.

Expansive high pressure in the upper atmosphere will focus on parts of the East and West this week, sending heat indices well into the triple digits from the Mid-Atlantic states into the South.

10-Day Weather Forecast

Almanac

Astronomy

Jul. 26, 2016 Rise Set
Actual Time
Civil Twilight
Nautical Twilight
Astronomical Twilight
Moon
Length of Visible Light
Length of Day
Tomorrow will be .
, % of the Moon is Illuminated

Today's Extremes

State Highs State Lows

Community

WunderPhotos

Upload Photos

1,927,530 photos uploaded!

WunderBlog® & News

Nearby

Air Quality

  Air Quality AQ Index Pollutant
Not available.

Snow Depth

Station Depth Elevation

Earthquake Activity

City Distance Mag. Time & Date
Minimum magnitude displayed is 2.5.

Coastal Water Temperatures

Place Temperature

Stations

Nearby Weather Stations

Station Location Temp. Windchill Dew Point Humidity Wind Precip. Elev Updated Type
                   

Watches & Warnings

There are currently no watches in effect.